Time;durP1;ratioP1;P1;durP2;ratioP2;P2;SDS_P1;SDS_P2;PMS_P1;PMS_P2;Temp;Humidity;BMP_temperature;BMP_pressure;BME280_temperature;BME280_humidity;BME280_pressure;Samples;Min_cycle;Max_cycle;Signal;HPM_P1;HPM_P2
2022/06/04 00:01:48;;;;;;;0.50;0.50;;;;;;;9.57;76.94;99704.97;4807146;29;20082;-85
2022/06/04 00:04:16;;;;;;;0.50;0.50;;;;;;;9.57;76.23;99699.56;4806204;29;20085;-85
2022/06/04 00:06:44;;;;;;;0.50;0.50;;;;;;;9.59;75.93;99702.03;4806417;29;20047;-86
2022/06/04 00:09:12;;;;;;;0.50;0.50;;;;;;;9.57;76.28;99704.97;4805217;29;20068;-85
2022/06/04 00:17:08;;;;;;;0.50;0.50;;;;;;;9.37;76.85;99688.97;4805799;29;20078;-84
2022/06/04 00:19:35;;;;;;;0.50;0.50;;;;;;;9.41;76.54;99690.16;4805703;29;20534;-84
2022/06/04 00:22:03;;;;;;;0.50;0.50;;;;;;;9.40;76.47;99693.09;4805854;29;20142;-85
2022/06/04 00:24:30;;;;;;;0.50;0.50;;;;;;;9.27;77.21;99684.06;4806078;29;20080;-85
2022/06/04 00:26:58;;;;;;;0.50;0.50;;;;;;;9.26;77.20;99686.97;4806006;29;20103;-86
2022/06/04 00:29:25;;;;;;;0.50;0.50;;;;;;;9.22;77.26;99688.47;4805881;29;20141;-84
2022/06/04 00:31:52;;;;;;;0.50;0.50;;;;;;;9.11;77.42;99682.75;4805762;29;20436;-85
2022/06/04 00:34:22;;;;;;;0.50;0.50;;;;;;;9.08;78.14;99695.78;4805970;29;20058;-86
2022/06/04 00:36:49;;;;;;;0.50;0.50;;;;;;;9.05;78.15;99691.66;4804141;29;20141;-85
2022/06/04 00:39:16;;;;;;;0.50;0.50;;;;;;;8.95;78.78;99688.63;4805708;29;20086;-84
2022/06/04 00:42:10;;;;;;;0.50;0.50;;;;;;;8.88;79.63;99693.22;4805348;29;20051;-86
2022/06/04 00:44:59;;;;;;;0.50;0.50;;;;;;;8.88;79.32;99701.31;4804977;29;20062;-84
2022/06/04 00:47:28;;;;;;;0.50;0.50;;;;;;;8.90;79.45;99696.53;4804384;29;20059;-85
2022/06/04 00:49:55;;;;;;;0.50;0.50;;;;;;;8.88;79.81;99704.00;4805707;29;20076;-84
2022/06/04 00:52:23;;;;;;;0.50;0.50;;;;;;;8.85;79.38;99697.19;4807762;29;20506;-84
2022/06/04 00:54:52;;;;;;;0.50;0.50;;;;;;;8.82;79.74;99696.78;4814917;29;20093;-85
2022/06/04 00:57:39;;;;;;;0.50;0.50;;;;;;;8.88;79.33;99701.31;4804538;29;20066;-84
2022/06/04 01:00:23;;;;;;;0.50;0.50;;;;;;;8.92;78.90;99697.16;4805199;29;20139;-85
2022/06/04 01:03:21;;;;;;;0.50;0.50;;;;;;;8.94;78.51;99705.00;4789103;29;20051;-84
2022/06/04 01:06:17;;;;;;;0.50;0.50;;;;;;;8.95;78.42;99703.97;4805430;29;20054;-83
2022/06/04 01:09:07;;;;;;;0.50;0.50;;;;;;;8.87;78.68;99705.06;4805625;29;20059;-84
2022/06/04 01:12:10;;;;;;;0.50;0.50;;;;;;;8.80;79.52;99702.38;4805613;29;20059;-85
2022/06/04 01:15:08;;;;;;;0.50;0.50;;;;;;;8.81;79.10;99705.91;4804219;29;20051;-84
2022/06/04 01:18:10;;;;;;;0.50;0.50;;;;;;;8.85;79.03;99701.75;4805352;29;20108;-84
2022/06/04 01:20:48;;;;;;;0.50;0.50;;;;;;;8.85;78.96;99701.75;4805112;29;20127;-84
2022/06/04 01:23:49;;;;;;;0.50;0.50;;;;;;;8.94;78.49;99705.00;4805089;29;20075;-85
2022/06/04 01:26:52;;;;;;;0.50;0.50;;;;;;;8.92;78.34;99710.59;4804965;29;20063;-85
2022/06/04 01:29:24;;;;;;;0.50;0.50;;;;;;;8.87;78.71;99710.44;4787893;29;20084;-85
2022/06/04 01:31:58;;;;;;;0.50;0.50;;;;;;;8.85;78.85;99707.13;4802581;29;20051;-83
2022/06/04 01:34:29;;;;;;;;;;;;;;;8.83;78.67;99706.50;4806205;29;20082;-84
2022/06/04 01:37:03;;;;;;;0.50;0.50;;;;;;;8.86;78.43;99703.38;4805710;29;19929;-83
2022/06/04 01:41:03;;;;;;;0.50;0.50;;;;;;;8.89;78.22;99703.78;4805900;29;20062;-84
2022/06/04 01:42:24;;;;;;;0.50;0.50;;;;;;;8.83;78.74;99698.44;4805768;29;20055;-85
2022/06/04 01:44:52;;;;;;;0.50;0.50;;;;;;;8.87;78.51;99705.06;4806240;29;20232;-85
2022/06/04 01:47:25;;;;;;;0.50;0.50;;;;;;;8.92;78.43;99712.47;4808226;29;20066;-85
2022/06/04 01:49:54;;;;;;;0.50;0.50;;;;;;;8.85;78.59;99717.88;4789430;29;20055;-85
2022/06/04 01:52:29;;;;;;;0.50;0.50;;;;;;;8.81;78.99;99714.81;4802380;29;20104;-85
2022/06/04 01:54:58;;;;;;;0.60;0.60;;;;;;;8.76;79.54;99714.63;4802326;29;20058;-86
2022/06/04 01:57:36;;;;;;;0.50;0.50;;;;;;;8.79;79.31;99710.69;4802245;29;20100;-85
2022/06/04 02:00:25;;;;;;;0.50;0.50;;;;;;;8.85;79.04;99712.50;4802128;29;20062;-85
2022/06/04 02:03:13;;;;;;;0.50;0.50;;;;;;;8.92;78.58;99716.00;4787222;29;20066;-84
2022/06/04 02:06:08;;;;;;;0.60;0.60;;;;;;;8.97;78.16;99715.34;4802403;29;20058;-85
2022/06/04 02:08:58;;;;;;;0.50;0.50;;;;;;;9.00;77.94;99712.22;4802441;29;20086;-85
2022/06/04 02:11:26;;;;;;;0.57;0.57;;;;;;;9.03;77.80;99722.53;4803273;29;20062;-85
2022/06/04 02:14:04;;;;;;;0.57;0.57;;;;;;;9.07;77.43;99715.69;4804512;29;20558;-85
2022/06/04 02:16:34;;;;;;;0.50;0.50;;;;;;;9.09;77.37;99719.81;4803331;29;20070;-85
2022/06/04 02:19:01;;;;;;;0.50;0.50;;;;;;;9.14;77.24;99726.41;4804160;29;20053;-85
2022/06/04 02:21:30;;;;;;;0.50;0.50;;;;;;;9.15;77.02;99720.81;4804441;29;20459;-84
2022/06/04 02:23:57;;;;;;;0.50;0.50;;;;;;;9.21;76.59;99717.25;4802742;29;20062;-85
2022/06/04 02:26:26;;;;;;;0.60;0.60;;;;;;;9.25;76.52;99729.22;4803135;29;20396;-85
2022/06/04 02:28:56;;;;;;;0.50;0.50;;;;;;;9.30;76.46;99725.91;4772876;29;20078;-85
2022/06/04 02:31:29;;;;;;;0.50;0.50;;;;;;;9.32;76.32;99724.63;4802888;29;20178;-85
2022/06/04 02:34:20;;;;;;;0.50;0.50;;;;;;;9.35;75.98;99715.28;4803776;29;20142;-84
2022/06/04 02:36:57;;;;;;;0.50;0.50;;;;;;;9.38;75.73;99717.53;4807528;29;20059;-85
2022/06/04 02:39:37;;;;;;;0.50;0.50;;;;;;;9.43;75.69;99717.69;4806668;29;20054;-84
2022/06/04 02:42:29;;;;;;;0.50;0.50;;;;;;;9.46;75.56;99719.94;4806482;29;20082;-85
2022/06/04 02:45:07;;;;;;;0.50;0.50;;;;;;;9.51;75.57;99717.41;4806442;29;20255;-83
2022/06/04 02:47:42;;;;;;;0.50;0.50;;;;;;;9.56;75.42;99719.47;4778466;29;20055;-84
2022/06/04 02:50:20;;;;;;;0.50;0.50;;;;;;;9.57;75.28;99717.59;4807486;29;20054;-85
2022/06/04 02:52:48;;;;;;;0.50;0.50;;;;;;;9.65;75.41;99722.72;4807495;29;20358;-85
2022/06/04 02:55:19;;;;;;;0.50;0.50;;;;;;;9.71;75.20;99719.13;4807398;29;20047;-84
2022/06/04 02:57:49;;;;;;;0.50;0.50;;;;;;;9.72;75.31;99718.06;4791258;29;20247;-85
2022/06/04 03:00:20;;;;;;;0.50;0.50;;;;;;;9.79;75.03;99724.22;4806269;29;20179;-84
2022/06/04 03:02:47;;;;;;;0.50;0.50;;;;;;;9.84;74.71;99720.88;4806940;29;20146;-85
2022/06/04 03:05:24;;;;;;;0.60;0.60;;;;;;;9.92;74.48;99729.47;4792119;29;20075;-83
2022/06/04 03:07:56;;;;;;;0.50;0.50;;;;;;;9.96;74.24;99728.00;4805809;29;20082;-85
2022/06/04 03:10:29;;;;;;;0.57;0.57;;;;;;;10.01;74.21;99734.63;4807072;29;20568;-84
2022/06/04 03:12:56;;;;;;;0.50;0.50;;;;;;;10.04;73.74;99726.88;4790935;29;20066;-86
2022/06/04 03:15:24;;;;;;;0.50;0.50;;;;;;;10.12;73.74;99733.84;4806121;29;20417;-85
2022/06/04 03:17:51;;;;;;;0.60;0.60;;;;;;;10.18;73.57;99733.81;4790871;29;20066;-85
2022/06/04 03:20:22;;;;;;;0.50;0.50;;;;;;;10.28;73.53;99738.72;4806952;29;20058;-83
2022/06/04 03:22:50;;;;;;;0.50;0.50;;;;;;;10.34;73.42;99737.81;4805663;29;20070;-85
2022/06/04 03:25:17;;;;;;;0.50;0.50;;;;;;;10.39;73.20;99740.66;4807210;29;20145;-85
2022/06/04 03:27:44;;;;;;;0.50;0.50;;;;;;;10.47;72.72;99730.59;4805402;29;20047;-84
2022/06/04 03:30:12;;;;;;;0.50;0.50;;;;;;;10.52;72.58;99738.84;4806748;29;20061;-85
2022/06/04 03:32:42;;;;;;;0.50;0.50;;;;;;;10.58;73.19;99743.31;4806422;29;20059;-83
2022/06/04 03:35:10;;;;;;;0.50;0.50;;;;;;;10.67;73.02;99741.16;4806883;29;20141;-85
2022/06/04 03:37:37;;;;;;;0.50;0.50;;;;;;;10.73;72.74;99735.66;4806791;29;20066;-85
2022/06/04 03:40:05;;;;;;;0.50;0.50;;;;;;;10.85;72.83;99739.25;4805470;29;20057;-84
2022/06/04 03:42:33;;;;;;;0.50;0.50;;;;;;;10.96;73.16;99743.06;4806824;29;20050;-84
2022/06/04 03:45:00;;;;;;;0.50;0.50;;;;;;;11.04;72.34;99741.91;4809403;29;20055;-83
2022/06/04 03:47:28;;;;;;;0.50;0.50;;;;;;;11.10;72.50;99737.47;4808097;29;20055;-85
2022/06/04 03:49:57;;;;;;;0.50;0.50;;;;;;;11.19;72.49;99734.22;4806352;29;20057;-84
2022/06/04 03:52:25;;;;;;;0.50;0.50;;;;;;;11.28;71.81;99743.63;4808683;29;20119;-83
2022/06/04 03:54:55;;;;;;;0.50;0.50;;;;;;;11.31;71.31;99741.50;4806118;29;20058;-84
2022/06/04 03:57:50;;;;;;;0.50;0.50;;;;;;;11.31;71.17;99736.09;4805321;29;20430;-84
2022/06/04 04:00:29;;;;;;;0.50;0.50;;;;;;;11.41;71.13;99737.19;4805692;29;20054;-86
2022/06/04 04:03:04;;;;;;;0.50;0.50;;;;;;;11.47;70.70;99740.84;4806120;29;20080;-84
2022/06/04 04:05:37;;;;;;;0.50;0.50;;;;;;;11.58;70.10;99744.63;4806391;29;20066;-85
2022/06/04 04:08:06;;;;;;;0.50;0.50;;;;;;;11.69;69.54;99739.22;4806447;29;20589;-84
2022/06/04 04:10:41;;;;;;;0.50;0.50;;;;;;;11.79;69.15;99735.13;4805219;29;20119;-84
2022/06/04 04:13:08;;;;;;;0.50;0.50;;;;;;;11.86;68.34;99746.66;4806413;29;20062;-85
2022/06/04 04:15:35;;;;;;;0.50;0.50;;;;;;;11.97;68.10;99742.31;4806292;29;20427;-84
2022/06/04 04:18:05;;;;;;;0.50;0.50;;;;;;;12.06;67.74;99733.63;4806048;29;20062;-85
2022/06/04 04:20:35;;;;;;;0.50;0.50;;;;;;;12.17;67.49;99744.66;4806427;29;20055;-85
2022/06/04 04:23:06;;;;;;;0.50;0.50;;;;;;;12.25;67.15;99737.00;4786603;29;20051;-85
2022/06/04 04:25:35;;;;;;;0.50;0.50;;;;;;;12.30;66.66;99739.81;4801779;29;20142;-85
2022/06/04 04:28:05;;;;;;;0.50;0.50;;;;;;;12.40;66.58;99732.97;4801477;29;20054;-84
2022/06/04 04:30:34;;;;;;;0.50;0.50;;;;;;;12.44;66.33;99726.03;4802532;29;20116;-85
2022/06/04 04:33:03;;;;;;;0.50;0.50;;;;;;;12.57;66.29;99733.88;4802992;29;20055;-85
2022/06/04 04:35:32;;;;;;;0.50;0.50;;;;;;;12.64;65.83;99734.56;4800872;29;20058;-85
2022/06/04 04:38:00;;;;;;;0.50;0.50;;;;;;;12.72;65.90;99736.06;4803127;29;20602;-86
2022/06/04 04:40:33;;;;;;;0.50;0.50;;;;;;;12.87;65.71;99738.25;4806272;29;20118;-85
2022/06/04 04:43:00;;;;;;;0.50;0.50;;;;;;;13.01;65.36;99742.31;4470138;29;10000475;-85
2022/06/04 04:45:28;;;;;;;0.40;0.40;;;;;;;13.11;65.07;99737.06;4803452;29;20108;-85
2022/06/04 04:47:56;;;;;;;0.50;0.50;;;;;;;13.24;64.38;99735.94;4801187;29;20047;-86
2022/06/04 04:50:33;;;;;;;0.50;0.50;;;;;;;13.30;63.87;99737.72;4799726;29;20529;-84
2022/06/04 04:53:03;;;;;;;0.50;0.50;;;;;;;13.33;63.41;99739.13;4792642;29;20111;-85
2022/06/04 04:55:32;;;;;;;0.50;0.50;;;;;;;13.39;63.49;99741.69;4780062;30;20055;-84
2022/06/04 04:58:00;;;;;;;0.47;0.47;;;;;;;13.52;63.74;99734.28;4767751;30;20063;-84
2022/06/04 05:00:31;;;;;;;0.40;0.40;;;;;;;13.64;63.72;99740.47;4782431;30;20063;-85
2022/06/04 05:02:59;;;;;;;0.50;0.50;;;;;;;13.68;62.80;99744.34;4787867;30;20051;-84
2022/06/04 05:05:30;;;;;;;0.40;0.40;;;;;;;13.75;62.98;99750.41;4790044;30;20027;-86
2022/06/04 05:08:24;;;;;;;0.50;0.50;;;;;;;13.96;62.69;99745.31;4791200;30;20149;-85
2022/06/04 05:10:51;;;;;;;0.40;0.40;;;;;;;13.97;61.94;99749.66;4781090;30;20135;-85
2022/06/04 05:13:19;;;;;;;0.50;0.50;;;;;;;13.95;62.30;99744.50;4753301;30;20056;-86
2022/06/04 05:15:47;;;;;;;0.50;0.50;;;;;;;14.14;63.34;99747.72;4763185;30;20050;-86
2022/06/04 05:18:14;;;;;;;0.40;0.40;;;;;;;14.36;63.32;99753.19;4764636;30;20062;-86
2022/06/04 05:20:42;;;;;;;0.40;0.40;;;;;;;14.38;61.48;99752.94;4767220;30;20055;-86
2022/06/04 05:23:09;;;;;;;0.40;0.40;;;;;;;14.49;61.26;99750.09;4765568;30;20115;-85
2022/06/04 05:25:37;;;;;;;0.43;0.43;;;;;;;14.52;60.93;99751.50;4758860;30;20122;-88
2022/06/04 05:28:06;;;;;;;0.40;0.40;;;;;;;14.54;60.81;99743.16;4779482;30;20592;-82
2022/06/04 05:30:34;;;;;;;0.47;0.47;;;;;;;14.69;60.89;99743.31;4752909;30;20490;-84
2022/06/04 05:33:01;;;;;;;0.50;0.50;;;;;;;14.80;59.98;99736.94;4785103;29;20051;-85
2022/06/04 05:35:28;;;;;;;0.40;0.40;;;;;;;14.90;59.94;99745.19;4799883;29;20047;-83
2022/06/04 05:37:55;;;;;;;0.40;0.40;;;;;;;14.97;59.80;99742.28;4803260;29;20062;-84
2022/06/04 05:40:25;;;;;;;0.50;0.50;;;;;;;15.10;60.53;99757.38;4794972;29;20055;-86
2022/06/04 05:42:56;;;;;;;0.50;0.50;;;;;;;15.20;60.23;99746.59;4794724;29;20047;-84
2022/06/04 05:45:27;;;;;;;0.40;0.40;;;;;;;15.15;59.18;99739.19;4806906;29;20119;-83
2022/06/04 05:47:54;;;;;;;0.40;0.40;;;;;;;15.24;59.43;99744.16;4803683;29;20054;-84
2022/06/04 05:50:21;;;;;;;0.50;0.50;;;;;;;15.36;59.31;99737.50;4794986;29;20051;-87
2022/06/04 05:52:49;;;;;;;0.40;0.40;;;;;;;15.52;59.49;99733.03;4790434;29;20071;-88
2022/06/04 05:55:16;;;;;;;0.40;0.40;;;;;;;15.66;59.15;99738.03;4793521;29;20051;-88
2022/06/04 05:57:43;;;;;;;0.50;0.50;;;;;;;15.73;58.55;99733.22;4785154;29;20058;-86
2022/06/04 06:00:12;;;;;;;0.50;0.50;;;;;;;15.77;57.96;99728.88;4800452;29;20066;-90
2022/06/04 06:02:39;;;;;;;0.40;0.40;;;;;;;15.79;57.73;99719.38;4794888;30;20081;-85
2022/06/04 06:05:06;;;;;;;0.40;0.40;;;;;;;15.97;57.76;99726.28;4790475;29;20051;-84
2022/06/04 06:07:34;;;;;;;0.50;0.50;;;;;;;16.00;57.51;99725.78;4795934;29;20092;-86
2022/06/04 06:10:03;;;;;;;0.50;0.50;;;;;;;16.02;57.27;99723.59;4794423;29;20047;-84
2022/06/04 06:12:30;;;;;;;0.40;0.40;;;;;;;15.92;56.98;99723.53;4796491;29;20089;-88
2022/06/04 06:14:57;;;;;;;0.40;0.40;;;;;;;16.08;56.99;99729.91;4800795;29;20162;-87
2022/06/04 06:17:25;;;;;;;0.45;0.45;;;;;;;16.30;57.05;99720.75;4785173;29;20058;-86
2022/06/04 06:19:53;;;;;;;0.50;0.50;;;;;;;16.31;55.76;99731.41;4793293;29;20482;-87
2022/06/04 06:22:20;;;;;;;0.50;0.50;;;;;;;16.33;53.88;99721.06;4783027;29;20410;-87
2022/06/04 06:24:47;;;;;;;0.45;0.45;;;;;;;16.37;53.45;99721.34;4789923;29;20054;-87
2022/06/04 06:27:14;;;;;;;0.40;0.40;;;;;;;16.53;54.02;99720.31;4786784;29;20063;-87
2022/06/04 06:29:41;;;;;;;0.40;0.40;;;;;;;16.73;52.96;99713.31;4787269;29;20515;-86
2022/06/04 06:32:08;;;;;;;0.40;0.40;;;;;;;16.87;53.12;99709.03;4789396;29;20054;-86
2022/06/04 06:34:37;;;;;;;0.40;0.40;;;;;;;17.02;52.02;99708.25;4799889;29;20538;-85
2022/06/04 06:37:04;;;;;;;0.50;0.50;;;;;;;17.13;51.77;99722.72;4801859;29;20055;-86
2022/06/04 06:39:31;;;;;;;0.50;0.50;;;;;;;17.37;51.83;99714.81;4808738;29;20141;-83
2022/06/04 06:41:58;;;;;;;0.45;0.45;;;;;;;17.38;50.44;99713.75;4802652;29;20518;-86
2022/06/04 06:44:41;;;;;;;0.50;0.50;;;;;;;17.25;50.85;99710.47;4785350;30;20142;-86
2022/06/04 06:47:10;;;;;;;0.40;0.40;;;;;;;17.18;51.24;99720.81;4796763;29;20063;-85
2022/06/04 06:49:38;;;;;;;0.50;0.50;;;;;;;17.40;51.56;99717.03;4800144;29;20062;-85
2022/06/04 06:52:11;;;;;;;0.50;0.50;;;;;;;17.39;49.56;99712.66;4796013;29;20059;-85
2022/06/04 06:54:39;;;;;;;0.50;0.50;;;;;;;17.57;49.85;99720.28;4802925;29;20062;-86
2022/06/04 06:57:09;;;;;;;0.40;0.40;;;;;;;17.46;49.24;99713.19;4803412;29;20047;-87
2022/06/04 06:59:37;;;;;;;0.40;0.40;;;;;;;16.95;50.51;99715.88;4795986;29;20057;-87
2022/06/04 07:02:05;;;;;;;0.50;0.50;;;;;;;17.13;50.51;99709.91;4802493;29;20061;-87
2022/06/04 07:04:32;;;;;;;0.50;0.50;;;;;;;17.54;49.63;99708.00;4803962;29;20058;-86
2022/06/04 07:07:01;;;;;;;0.50;0.50;;;;;;;17.82;48.68;99719.47;4804583;29;20070;-86
2022/06/04 07:09:33;;;;;;;0.50;0.50;;;;;;;17.68;48.45;99715.66;4804605;29;20066;-86
2022/06/04 07:12:01;;;;;;;0.40;0.40;;;;;;;18.01;48.64;99697.06;4805067;29;20123;-87
2022/06/04 07:14:29;;;;;;;0.30;0.30;;;;;;;18.12;47.27;99713.13;4804638;29;20133;-87
2022/06/04 07:16:59;;;;;;;0.50;0.50;;;;;;;17.82;47.53;99718.66;4804919;29;20112;-85
2022/06/04 07:19:27;;;;;;;0.40;0.40;;;;;;;17.76;47.87;99707.72;4805464;29;20150;-86
2022/06/04 07:21:55;;;;;;;0.50;0.50;;;;;;;17.90;47.40;99707.19;4805910;29;20055;-88
2022/06/04 07:24:23;;;;;;;0.40;0.40;;;;;;;17.77;47.48;99705.81;4806886;29;20582;-87
2022/06/04 07:26:51;;;;;;;0.40;0.40;;;;;;;17.67;47.32;99708.53;4807379;29;20584;-86
2022/06/04 07:29:18;;;;;;;0.50;0.50;;;;;;;17.62;47.52;99714.81;4808442;29;20142;-87
2022/06/04 07:31:45;;;;;;;0.50;0.50;;;;;;;17.85;46.60;99699.00;4807914;29;20057;-87
2022/06/04 07:34:14;;;;;;;0.40;0.40;;;;;;;18.11;46.36;99692.41;4806678;29;20598;-86
2022/06/04 07:36:46;;;;;;;0.40;0.40;;;;;;;18.49;45.62;99687.34;4806536;29;20107;-87
2022/06/04 07:39:18;;;;;;;0.30;0.30;;;;;;;18.36;46.56;99696.16;4806555;29;20058;-86
2022/06/04 07:41:54;;;;;;;0.40;0.40;;;;;;;18.53;45.55;99690.31;4777293;29;20188;-88
2022/06/04 07:44:24;;;;;;;0.40;0.40;;;;;;;18.97;45.02;99684.94;4807830;29;20059;-87
2022/06/04 07:46:54;;;;;;;0.55;0.55;;;;;;;19.32;42.93;99688.50;4806112;29;20051;-86
2022/06/04 07:49:22;;;;;;;0.30;0.30;;;;;;;19.10;43.44;99685.41;4806548;29;20395;-87
2022/06/04 07:51:50;;;;;;;0.30;0.30;;;;;;;18.55;44.96;99696.34;4806202;29;20058;-86
2022/06/04 07:54:18;;;;;;;0.50;0.50;;;;;;;18.71;44.93;99688.88;4791430;29;20572;-86
2022/06/04 07:56:46;;;;;;;0.50;0.50;;;;;;;18.72;43.65;99682.31;4821178;29;20150;-86
2022/06/04 07:59:16;;;;;;;0.60;0.60;;;;;;;18.93;44.13;99680.31;4807499;29;20414;-86
2022/06/04 08:01:45;;;;;;;0.60;0.60;;;;;;;19.35;42.48;99679.72;4807046;29;20087;-87
2022/06/04 08:04:13;;;;;;;0.40;0.40;;;;;;;19.53;42.04;99680.94;4806080;29;20058;-86
2022/06/04 08:06:40;;;;;;;0.30;0.30;;;;;;;19.44;42.04;99688.94;4807312;29;20058;-87
2022/06/04 08:09:08;;;;;;;0.60;0.60;;;;;;;19.39;41.45;99675.28;4807102;29;20082;-86
2022/06/04 08:11:38;;;;;;;0.60;0.60;;;;;;;19.49;41.01;99679.88;4807289;29;20051;-87
2022/06/04 08:14:13;;;;;;;0.50;0.50;;;;;;;19.22;41.56;99691.34;4806777;29;20054;-86
2022/06/04 08:16:46;;;;;;;0.70;0.70;;;;;;;19.50;41.24;99676.03;4805543;29;20082;-86
2022/06/04 08:19:14;;;;;;;0.50;0.50;;;;;;;20.22;40.98;99678.06;4806458;29;20073;-85
2022/06/04 08:21:41;;;;;;;0.57;0.57;;;;;;;19.85;40.67;99685.88;4807080;29;20054;-86
2022/06/04 08:24:10;;;;;;;0.60;0.60;;;;;;;19.84;40.83;99681.50;4806857;29;20051;-86
2022/06/04 08:26:38;;;;;;;0.40;0.40;;;;;;;19.90;40.39;99688.56;4791006;29;20059;-86
2022/06/04 08:29:05;;;;;;;0.63;0.63;;;;;;;20.22;39.94;99673.41;4790465;29;20541;-86
2022/06/04 08:31:32;;;;;;;0.60;0.60;;;;;;;20.64;38.92;99674.56;4806784;29;20054;-86
2022/06/04 08:34:00;;;;;;;0.65;0.65;;;;;;;20.91;39.06;99678.56;4805429;29;20063;-87
2022/06/04 08:36:28;;;;;;;0.60;0.60;;;;;;;21.00;38.40;99672.13;4806459;29;20054;-85
2022/06/04 08:38:56;;;;;;;0.50;0.50;;;;;;;21.07;39.00;99680.00;4805269;29;20062;-87
2022/06/04 08:41:38;;;;;;;0.30;0.30;;;;;;;20.15;40.08;99670.19;4807700;29;20058;-87
2022/06/04 08:44:09;;;;;;;0.70;0.70;;;;;;;19.83;41.09;99673.59;4812709;29;20055;-86
2022/06/04 08:46:45;;;;;;;0.60;0.60;;;;;;;20.48;38.98;99675.84;4807100;29;20055;-87
2022/06/04 08:49:18;;;;;;;0.60;0.60;;;;;;;21.27;37.15;99669.78;4805973;29;20059;-86
2022/06/04 08:51:46;;;;;;;0.70;0.70;;;;;;;21.82;35.99;99667.22;4791406;29;20078;-87
2022/06/04 09:00:24;;;;;;;0.40;0.40;;;;;;;21.61;37.53;99651.13;4805392;29;20059;-85
2022/06/04 09:03:22;;;;;;;0.70;0.70;;;;;;;22.75;34.90;99655.19;4767885;30;20105;-87
2022/06/04 09:06:31;;;;;;;0.60;0.60;;;;;;;22.97;33.91;99654.44;4753405;30;20052;-85
2022/06/04 09:09:39;;;;;;;0.30;0.30;;;;;;;22.32;34.77;99645.38;4749679;30;20060;-86
2022/06/04 09:12:25;;;;;;;0.35;0.35;;;;;;;20.63;37.89;99645.50;4735621;30;20056;-85
2022/06/04 09:14:56;;;;;;;0.77;0.77;;;;;;;20.43;38.32;99651.22;4750036;30;20666;-86
2022/06/04 09:17:35;;;;;;;0.70;0.70;;;;;;;21.62;36.62;99647.25;4735256;30;20557;-87
2022/06/04 09:20:30;;;;;;;0.70;0.70;;;;;;;22.85;34.94;99631.00;4750511;30;20133;-86
2022/06/04 09:23:04;;;;;;;0.70;0.70;;;;;;;23.84;33.75;99624.72;4720956;30;20060;-86
2022/06/04 09:25:45;;;;;;;0.40;0.40;;;;;;;24.35;33.68;99620.50;4750743;30;20056;-85
2022/06/04 09:28:53;;;;;;;0.60;0.60;;;;;;;24.63;31.89;99623.81;4750110;30;20159;-87
2022/06/04 09:31:39;;;;;;;0.60;0.60;;;;;;;24.25;30.87;99626.31;4745017;30;20096;-87
2022/06/04 09:34:14;;;;;;;0.70;0.70;;;;;;;24.60;30.57;99613.44;4747379;30;20059;-86
2022/06/04 09:36:46;;;;;;;0.70;0.70;;;;;;;24.97;28.68;99622.22;4750099;30;20181;-85
2022/06/04 09:39:25;;;;;;;0.40;0.40;;;;;;;24.83;28.65;99625.94;4734917;30;20072;-83
2022/06/04 09:42:04;;;;;;;0.30;0.30;;;;;;;23.24;30.82;99617.72;4737405;30;20059;-85
2022/06/04 09:44:38;;;;;;;0.80;0.80;;;;;;;23.63;30.40;99619.75;4771766;29;20055;-89
2022/06/04 09:47:05;;;;;;;0.50;0.50;;;;;;;23.36;30.98;99609.69;4785975;30;20051;-87
2022/06/04 09:49:37;;;;;;;0.70;0.70;;;;;;;23.26;31.45;99629.25;4770798;30;20576;-86
2022/06/04 09:52:19;;;;;;;0.70;0.70;;;;;;;23.68;31.96;99624.31;4786415;30;20051;-86
2022/06/04 09:54:52;;;;;;;0.60;0.60;;;;;;;24.26;30.77;99622.41;4787610;29;20066;-87
2022/06/04 09:57:35;;;;;;;0.60;0.60;;;;;;;25.05;30.71;99624.97;4800261;29;20055;-86
2022/06/04 10:00:19;;;;;;;0.70;0.70;;;;;;;25.24;28.83;99612.78;4798048;29;20579;-87
2022/06/04 10:02:58;;;;;;;0.50;0.50;;;;;;;25.00;29.32;99618.81;4803147;29;20141;-86
2022/06/04 10:05:28;;;;;;;0.60;0.60;;;;;;;24.48;30.13;99611.31;4805407;29;20437;-85
2022/06/04 10:07:56;;;;;;;0.30;0.30;;;;;;;23.40;31.73;99596.94;4800548;29;20051;-85
2022/06/04 10:10:37;;;;;;;0.70;0.70;;;;;;;23.23;31.76;99611.41;4796367;29;20088;-86
2022/06/04 10:16:42;;;;;;;0.30;0.30;;;;;;;22.08;34.59;99610.66;4785399;30;23018;-85
2022/06/04 10:19:12;;;;;;;0.60;0.60;;;;;;;23.23;33.15;99613.34;4773377;29;20062;-87
2022/06/04 10:21:42;;;;;;;0.70;0.70;;;;;;;24.57;31.12;99603.84;4793905;29;20051;-86
2022/06/04 10:24:26;;;;;;;0.60;0.60;;;;;;;25.40;29.48;99593.75;4801017;29;20054;-85
2022/06/04 10:27:01;;;;;;;0.60;0.60;;;;;;;25.71;27.20;99613.63;4807857;29;20059;-87
2022/06/04 10:29:35;;;;;;;0.63;0.63;;;;;;;25.54;27.36;99599.06;4804970;29;20069;-86
2022/06/04 10:32:21;;;;;;;0.30;0.30;;;;;;;24.90;29.40;99599.81;4805996;29;20463;-89
2022/06/04 10:35:42;;;;;;;0.20;0.20;;;;;;;23.95;31.24;99604.00;4804607;29;20058;-86
2022/06/04 10:38:38;;;;;;;0.20;0.20;;;;;;;22.88;32.47;99597.34;4797943;29;20537;-87
2022/06/04 10:41:35;;;;;;;0.30;0.30;;;;;;;22.72;33.50;99598.84;4781568;30;20059;-87
2022/06/04 10:44:10;;;;;;;0.30;0.30;;;;;;;23.09;33.69;99603.22;4804481;29;20106;-87
2022/06/04 10:46:57;;;;;;;0.40;0.40;;;;;;;23.31;33.35;99596.06;4814649;29;20055;-86
2022/06/04 10:49:46;;;;;;;0.30;0.30;;;;;;;23.75;32.42;99594.38;4803655;29;20090;-88
2022/06/04 10:52:31;;;;;;;0.40;0.40;;;;;;;23.38;33.27;99598.38;4803599;29;20078;-87
2022/06/04 10:55:16;;;;;;;0.80;0.80;;;;;;;23.88;32.13;99598.16;4804274;29;20055;-87
2022/06/04 10:58:12;;;;;;;0.30;0.30;;;;;;;23.85;29.71;99596.88;4808318;29;20080;-87
2022/06/04 11:00:48;;;;;;;0.30;0.30;;;;;;;22.31;32.55;99608.03;4772697;30;20073;-87
2022/06/04 11:03:25;;;;;;;0.30;0.30;;;;;;;21.71;33.11;99597.13;4787612;30;20063;-88
2022/06/04 11:06:04;;;;;;;0.30;0.30;;;;;;;21.46;34.67;99610.19;4758263;30;20055;-86
2022/06/04 11:08:36;;;;;;;0.30;0.30;;;;;;;21.27;35.68;99598.41;4788899;30;20142;-85
2022/06/04 11:11:07;;;;;;;0.40;0.40;;;;;;;21.31;35.91;99599.47;4791645;30;20616;-87
2022/06/04 11:14:16;;;;;;;0.40;0.40;;;;;;;21.59;33.83;99603.09;4774480;30;20155;-87
2022/06/04 11:16:49;;;;;;;0.40;0.40;;;;;;;22.49;31.50;99584.25;4788336;30;20542;-86
2022/06/04 11:19:37;;;;;;;0.40;0.40;;;;;;;22.28;32.23;99595.72;4758800;30;20083;-87
2022/06/04 11:22:15;;;;;;;0.30;0.30;;;;;;;21.84;32.36;99597.13;4759839;29;20063;-88
2022/06/04 11:24:56;;;;;;;0.40;0.40;;;;;;;21.78;33.04;99597.53;4774362;30;20119;-89
2022/06/04 11:27:39;;;;;;;1.00;1.00;;;;;;;23.59;30.85;99599.47;4773260;30;20648;-87
2022/06/04 11:30:13;;;;;;;0.70;0.70;;;;;;;24.62;30.11;99592.66;4788535;30;20055;-88
2022/06/04 11:32:59;;;;;;;0.40;0.40;;;;;;;24.69;29.94;99597.72;4789921;30;20089;-87
2022/06/04 11:35:38;;;;;;;0.40;0.40;;;;;;;24.45;30.71;99600.91;4794086;30;20154;-87
2022/06/04 11:38:25;;;;;;;0.32;0.32;;;;;;;23.66;31.38;99593.50;4809231;29;20076;-88
2022/06/04 11:40:52;;;;;;;0.40;0.40;;;;;;;23.03;32.61;99587.94;4813291;29;20062;-86
2022/06/04 11:43:32;;;;;;;0.40;0.40;;;;;;;23.45;32.01;99591.28;4807508;29;20059;-87
2022/06/04 11:46:23;;;;;;;0.50;0.50;;;;;;;23.62;32.23;99587.78;4808371;29;20157;-88
2022/06/04 11:49:43;;;;;;;0.73;0.73;;;;;;;24.87;30.96;99580.00;4806380;29;20104;-86
2022/06/04 11:52:16;;;;;;;0.77;0.77;;;;;;;25.76;27.87;99578.69;4789399;30;20084;-89
2022/06/04 11:55:20;;;;;;;0.60;0.60;;;;;;;26.49;27.01;99578.44;4774570;30;20055;-90
2022/06/04 11:57:59;;;;;;;0.20;0.20;;;;;;;25.48;28.79;99566.09;4774045;30;20074;-88
2022/06/04 12:00:32;;;;;;;0.20;0.20;;;;;;;24.46;30.17;99574.13;4773776;30;20063;-91
2022/06/04 12:03:25;;;;;;;0.30;0.30;;;;;;;24.03;31.97;99572.91;4787664;30;20055;-88
2022/06/04 12:06:22;;;;;;;0.30;0.30;;;;;;;23.66;32.04;99565.94;4774355;29;20063;-89
2022/06/04 12:09:06;;;;;;;0.40;0.40;;;;;;;22.47;33.71;99565.31;4733189;30;20136;-87
2022/06/04 12:11:38;;;;;;;0.90;0.90;;;;;;;23.24;32.61;99555.19;4720752;30;20096;-90
2022/06/04 12:14:11;;;;;;;0.90;0.90;;;;;;;26.07;28.36;99567.31;4734360;30;20507;-89
2022/06/04 12:16:42;;;;;;;0.80;0.80;;;;;;;27.82;26.86;99561.84;4745342;30;20068;-89
2022/06/04 12:25:19;;;;;;;0.20;0.20;;;;;;;25.01;29.61;99554.16;4730152;30;20061;-90
2022/06/04 12:28:20;;;;;;;0.20;0.20;;;;;;;24.46;31.14;99552.06;4720031;30;20569;-89
2022/06/04 12:30:48;;;;;;;0.20;0.20;;;;;;;24.42;30.70;99549.13;4714109;30;20682;-87
2022/06/04 12:33:29;;;;;;;0.40;0.40;;;;;;;23.85;31.94;99554.69;4713976;30;20545;-87